createdAt,value
2019-04-03T00:00:04.895Z,37.00
2019-04-03T00:02:30.129Z,37.10
2019-04-03T00:04:56.504Z,37.10
2019-04-03T00:07:22.766Z,37.30
2019-04-03T00:09:49.397Z,37.40
2019-04-03T00:12:16.044Z,37.50
2019-04-03T00:14:43.191Z,37.50
2019-04-03T00:17:08.896Z,37.40
2019-04-03T00:19:35.303Z,37.10
2019-04-03T00:22:01.542Z,37.50
2019-04-03T00:24:27.779Z,37.50
2019-04-03T00:26:54.202Z,37.60
2019-04-03T00:29:22.047Z,37.40
2019-04-03T00:31:46.891Z,37.50
2019-04-03T00:34:13.530Z,37.50
2019-04-03T00:36:40.007Z,37.50
2019-04-03T00:39:06.359Z,37.50
2019-04-03T00:41:32.608Z,37.50
2019-04-03T00:43:58.829Z,37.50
2019-04-03T00:46:25.287Z,37.50
2019-04-03T00:48:51.926Z,37.40
2019-04-03T00:51:18.342Z,37.40
2019-04-03T00:53:45.097Z,37.40
2019-04-03T00:56:11.169Z,37.40
2019-04-03T00:58:37.419Z,37.40
2019-04-03T01:01:03.904Z,37.40
2019-04-03T01:03:30.299Z,37.40
2019-04-03T01:05:58.034Z,37.40
2019-04-03T01:08:22.972Z,37.50
2019-04-03T01:10:49.620Z,37.60
2019-04-03T01:13:16.042Z,37.70
2019-04-03T01:15:42.459Z,37.60
2019-04-03T01:18:08.706Z,37.60
2019-04-03T01:20:36.231Z,37.60
2019-04-03T01:23:01.338Z,37.60
2019-04-03T01:25:29.263Z,37.60
2019-04-03T01:27:55.627Z,37.60
2019-04-03T01:30:21.874Z,37.70
2019-04-03T01:32:48.352Z,37.70
2019-04-03T01:35:17.001Z,37.70
2019-04-03T01:37:41.206Z,37.80
2019-04-03T01:40:07.591Z,37.80
2019-04-03T01:42:33.915Z,37.70
2019-04-03T01:45:00.541Z,37.80
2019-04-03T01:47:27.823Z,38.40
2019-04-03T01:49:53.347Z,38.00
2019-04-03T01:52:19.762Z,37.90
2019-04-03T01:54:47.656Z,38.00
2019-04-03T01:57:14.312Z,38.00
2019-04-03T01:59:40.954Z,38.00
2019-04-03T02:02:08.512Z,38.00
2019-04-03T02:04:33.797Z,38.00
2019-04-03T02:07:00.204Z,37.90
2019-04-03T02:09:26.683Z,37.90
2019-04-03T02:11:53.104Z,38.00
2019-04-03T02:14:21.174Z,38.00
2019-04-03T02:16:45.983Z,38.00
2019-04-03T02:19:12.397Z,37.90
2019-04-03T02:21:38.606Z,38.00
2019-04-03T02:24:05.798Z,38.00
2019-04-03T02:26:32.984Z,37.90
2019-04-03T02:28:58.723Z,37.90
2019-04-03T02:31:25.177Z,37.80
2019-04-03T02:33:51.634Z,37.80
2019-04-03T02:36:18.170Z,37.80
2019-04-03T02:38:44.227Z,37.80
2019-04-03T02:41:10.495Z,37.60
2019-04-03T02:43:36.750Z,37.70
2019-04-03T02:46:03.135Z,37.70
2019-04-03T02:48:29.616Z,37.50
2019-04-03T02:50:56.328Z,37.60
2019-04-03T02:53:22.448Z,37.60
2019-04-03T02:55:48.687Z,37.50
2019-04-03T02:58:15.128Z,37.50
2019-04-03T03:00:41.368Z,37.50
2019-04-03T03:03:07.781Z,37.50
2019-04-03T03:05:34.246Z,37.40
2019-04-03T03:08:01.083Z,37.50
2019-04-03T03:10:30.702Z,38.00
2019-04-03T03:12:54.153Z,37.40
2019-04-03T03:15:20.343Z,37.30
2019-04-03T03:17:46.785Z,37.30
2019-04-03T03:20:14.674Z,37.30
2019-04-03T03:22:41.154Z,37.30
2019-04-03T03:25:07.558Z,37.20
2019-04-03T03:27:33.991Z,37.20
2019-04-03T03:30:00.458Z,37.30
2019-04-03T03:32:32.508Z,37.10
2019-04-03T03:35:06.354Z,37.00
2019-04-03T03:37:19.757Z,37.10
2019-04-03T03:39:47.035Z,37.10
2019-04-03T03:42:13.401Z,37.10
2019-04-03T03:44:43.343Z,37.00
2019-04-03T03:47:06.216Z,37.10
2019-04-03T03:49:34.628Z,37.00
2019-04-03T03:52:04.062Z,37.00
2019-04-03T03:54:27.286Z,37.10
2019-04-03T03:56:53.846Z,37.00
2019-04-03T03:59:20.048Z,37.00
2019-04-03T04:01:46.473Z,37.00
2019-04-03T04:04:15.220Z,37.00
2019-04-03T04:06:39.459Z,36.90
2019-04-03T04:09:06.014Z,36.90
2019-04-03T04:11:32.501Z,36.90
2019-04-03T04:13:58.641Z,36.90
2019-04-03T04:16:25.358Z,36.90
2019-04-03T04:18:55.644Z,36.80
2019-04-03T04:21:17.973Z,36.80
2019-04-03T04:23:44.406Z,36.80
2019-04-03T04:26:10.608Z,36.80
2019-04-03T04:28:39.232Z,36.80
2019-04-03T04:31:03.499Z,36.80
2019-04-03T04:33:29.922Z,36.80
2019-04-03T04:35:56.333Z,36.70
2019-04-03T04:38:22.533Z,36.70
2019-04-03T04:40:48.801Z,36.70
2019-04-03T04:43:15.207Z,36.70
2019-04-03T04:45:42.734Z,36.60
2019-04-03T04:48:07.893Z,36.60
2019-04-03T04:50:34.377Z,36.60
2019-04-03T04:53:00.969Z,36.60
2019-04-03T04:55:28.099Z,36.60
2019-04-03T04:57:53.664Z,35.90
2019-04-03T05:00:20.046Z,36.50
2019-04-03T05:02:46.520Z,36.50
2019-04-03T05:05:12.948Z,36.50
2019-04-03T05:07:39.357Z,36.40
2019-04-03T05:10:06.484Z,36.50
2019-04-03T05:12:32.215Z,36.40
2019-04-03T05:15:00.081Z,36.40
2019-04-03T05:17:27.346Z,36.40
2019-04-03T05:19:52.743Z,36.40
2019-04-03T05:22:21.867Z,36.40
2019-04-03T05:24:47.416Z,36.40
2019-04-03T05:27:13.711Z,36.40
2019-04-03T05:29:40.109Z,36.30
2019-04-03T05:32:06.527Z,36.30
2019-04-03T05:34:32.808Z,36.40
2019-04-03T05:36:59.204Z,36.30
2019-04-03T05:39:25.481Z,36.20
2019-04-03T05:41:52.116Z,36.30
2019-04-03T05:44:18.500Z,36.20
2019-04-03T05:46:44.722Z,36.20
2019-04-03T05:49:11.085Z,36.20
2019-04-03T05:51:37.388Z,36.20
2019-04-03T05:54:03.624Z,36.20
2019-04-03T05:56:29.916Z,36.20
2019-04-03T05:59:00.388Z,36.20
2019-04-03T06:01:22.732Z,36.20
2019-04-03T06:03:49.401Z,36.10
2019-04-03T06:06:16.138Z,36.10
2019-04-03T06:08:42.225Z,36.10
2019-04-03T06:11:09.468Z,36.10
2019-04-03T06:13:35.285Z,36.10
2019-04-03T06:16:01.722Z,36.10
2019-04-03T06:18:28.843Z,36.10
2019-04-03T06:20:54.172Z,36.10
2019-04-03T06:23:21.480Z,36.00
2019-04-03T06:25:46.935Z,36.00
2019-04-03T06:28:13.801Z,36.00
2019-04-03T06:30:39.747Z,36.00
2019-04-03T06:33:06.171Z,36.00
2019-04-03T06:35:34.754Z,36.00
2019-04-03T06:37:59.064Z,36.00
2019-04-03T06:40:25.475Z,36.00
2019-04-03T06:42:51.873Z,36.00
2019-04-03T06:45:18.013Z,36.00
2019-04-03T06:47:44.408Z,36.10
2019-04-03T06:50:12.516Z,36.10
2019-04-03T06:52:37.455Z,36.00
2019-04-03T06:55:04.171Z,36.00
2019-04-03T06:57:30.528Z,36.00
2019-04-03T06:59:57.982Z,36.10
2019-04-03T07:02:27.131Z,36.00
2019-04-03T07:04:50.823Z,36.00
2019-04-03T07:07:31.761Z,36.00
2019-04-03T07:09:43.312Z,36.00
2019-04-03T07:12:09.749Z,36.00
2019-04-03T07:14:36.166Z,36.00
2019-04-03T07:17:05.156Z,35.90
2019-04-03T07:19:29.016Z,36.00
2019-04-03T07:21:55.929Z,36.00
2019-04-03T07:24:21.894Z,35.90
2019-04-03T07:26:48.201Z,36.00
2019-04-03T07:29:16.972Z,36.00
2019-04-03T07:31:40.961Z,36.00
2019-04-03T07:34:07.216Z,36.00
2019-04-03T07:36:33.468Z,36.00
2019-04-03T07:39:00.064Z,35.90
2019-04-03T07:41:26.491Z,35.90
2019-04-03T07:43:54.378Z,36.00
2019-04-03T07:46:20.889Z,35.90
2019-04-03T07:48:47.231Z,35.90
2019-04-03T07:51:13.445Z,35.90
2019-04-03T07:53:39.937Z,35.90
2019-04-03T07:56:06.551Z,35.90
2019-04-03T07:58:33.359Z,35.90
2019-04-03T08:00:59.590Z,35.90
2019-04-03T08:03:27.755Z,35.90
2019-04-03T08:05:55.927Z,35.80
2019-04-03T08:08:20.428Z,35.90
2019-04-03T08:10:46.767Z,36.00
2019-04-03T08:13:13.043Z,36.00
2019-04-03T08:15:39.432Z,35.90
2019-04-03T08:18:06.128Z,35.90
2019-04-03T08:20:32.368Z,35.90
2019-04-03T08:22:58.724Z,35.90
2019-04-03T08:25:25.767Z,36.00
2019-04-03T08:27:55.382Z,35.90
2019-04-03T08:30:20.110Z,36.00
2019-04-03T08:32:48.163Z,36.00
2019-04-03T08:35:20.339Z,36.00
2019-04-03T08:37:41.962Z,36.00
2019-04-03T08:40:05.873Z,36.00
2019-04-03T08:42:32.992Z,35.90
2019-04-03T08:44:58.659Z,35.90
2019-04-03T08:47:24.955Z,35.90
2019-04-03T08:49:51.336Z,35.90
2019-04-03T08:52:17.576Z,35.90
2019-04-03T08:54:43.987Z,35.90
2019-04-03T08:57:10.293Z,35.90
2019-04-03T08:59:36.696Z,35.90
2019-04-03T09:02:03.171Z,35.90
2019-04-03T09:04:29.561Z,35.90
2019-04-03T09:06:55.971Z,35.90
2019-04-03T09:09:22.419Z,35.90
2019-04-03T09:11:49.039Z,35.80
2019-04-03T09:14:15.243Z,35.80
2019-04-03T09:16:41.500Z,35.90
2019-04-03T09:19:10.159Z,35.80
2019-04-03T09:21:34.354Z,35.90
2019-04-03T09:24:00.779Z,36.30
2019-04-03T09:26:27.055Z,35.80
2019-04-03T09:28:53.838Z,35.90
2019-04-03T09:31:20.780Z,35.80
2019-04-03T09:33:46.516Z,35.80
2019-04-03T09:36:12.758Z,35.80
2019-04-03T09:38:40.677Z,35.80
2019-04-03T09:41:05.437Z,35.90
2019-04-03T09:43:32.163Z,35.80
2019-04-03T09:46:00.324Z,35.90
2019-04-03T09:48:24.921Z,35.80
2019-04-03T09:50:51.192Z,36.00
2019-04-03T09:53:17.616Z,35.90
2019-04-03T09:55:44.007Z,35.90
2019-04-03T09:58:10.281Z,35.80
2019-04-03T10:00:36.916Z,35.80
2019-04-03T10:03:05.745Z,35.80
2019-04-03T10:05:29.785Z,35.90
2019-04-03T10:07:56.473Z,35.90
2019-04-03T10:10:25.503Z,35.80
2019-04-03T10:12:49.289Z,35.90
2019-04-03T10:15:18.097Z,35.90
2019-04-03T10:17:42.140Z,35.90
2019-04-03T10:20:09.038Z,35.90
2019-04-03T10:22:35.253Z,35.90
2019-04-03T10:25:04.818Z,35.90
2019-04-03T10:27:28.142Z,36.00
2019-04-03T10:29:56.052Z,35.90
2019-04-03T10:32:20.944Z,35.80
2019-04-03T10:34:47.374Z,35.90
2019-04-03T10:37:14.776Z,36.00
2019-04-03T10:39:43.730Z,35.90
2019-04-03T10:42:07.174Z,35.90
2019-04-03T10:44:34.321Z,36.00
2019-04-03T10:47:00.574Z,35.90
2019-04-03T10:49:26.759Z,36.00
2019-04-03T10:51:53.004Z,35.90
2019-04-03T10:54:21.941Z,36.00
2019-04-03T10:56:47.711Z,36.00
2019-04-03T10:59:17.959Z,36.00
2019-04-03T11:01:40.432Z,36.00
2019-04-03T11:04:06.814Z,36.00
2019-04-03T11:06:35.210Z,36.00
2019-04-03T11:08:59.974Z,35.90
2019-04-03T11:11:27.190Z,36.00
2019-04-03T11:13:52.551Z,36.00
2019-04-03T11:16:18.783Z,36.10
2019-04-03T11:18:56.801Z,36.00
2019-04-03T11:21:12.752Z,36.00
2019-04-03T11:23:44.015Z,36.10
2019-04-03T11:26:04.776Z,36.00
2019-04-03T11:28:31.185Z,36.00
2019-04-03T11:31:01.213Z,36.00
2019-04-03T11:33:24.009Z,36.00
2019-04-03T11:35:52.216Z,36.00
2019-04-03T11:38:26.212Z,36.10
2019-04-03T11:40:43.114Z,36.00
2019-04-03T11:43:09.912Z,36.00
2019-04-03T11:45:36.260Z,36.00
2019-04-03T11:48:02.569Z,36.10
2019-04-03T11:50:28.861Z,36.00
2019-04-03T11:52:55.452Z,36.10
2019-04-03T11:55:21.702Z,36.00
2019-04-03T11:57:49.359Z,36.00
2019-04-03T12:00:14.422Z,36.00
2019-04-03T12:02:43.725Z,36.00
2019-04-03T12:05:14.761Z,36.00
2019-04-03T12:07:38.844Z,36.00
2019-04-03T12:10:05.226Z,35.90
2019-04-03T12:12:31.617Z,36.00
2019-04-03T12:14:57.868Z,36.00
2019-04-03T12:17:24.060Z,36.00
2019-04-03T12:19:50.428Z,36.00
2019-04-03T12:22:16.775Z,36.00
2019-04-03T12:24:43.055Z,36.00
2019-04-03T12:27:09.430Z,36.00
2019-04-03T12:29:35.904Z,36.00
2019-04-03T12:32:03.355Z,36.00
2019-04-03T12:34:28.719Z,36.00
2019-04-03T12:36:54.975Z,35.90
2019-04-03T12:39:21.384Z,36.00
2019-04-03T12:41:47.662Z,36.00
2019-04-03T12:44:14.443Z,36.00
2019-04-03T12:46:41.303Z,36.10
2019-04-03T12:49:07.979Z,36.10
2019-04-03T12:51:33.999Z,36.00
2019-04-03T12:54:00.449Z,36.00
2019-04-03T12:56:29.305Z,36.00
2019-04-03T12:58:54.353Z,36.60
2019-04-03T13:01:20.827Z,35.90
2019-04-03T13:03:47.281Z,36.00
2019-04-03T13:06:13.461Z,36.00
2019-04-03T13:08:39.823Z,36.00
2019-04-03T13:11:06.506Z,36.00
2019-04-03T13:13:32.934Z,36.00
2019-04-03T13:15:59.427Z,35.80
2019-04-03T13:18:25.775Z,35.70
2019-04-03T13:20:52.224Z,35.80
2019-04-03T13:23:19.058Z,35.80
2019-04-03T13:25:45.280Z,35.90
2019-04-03T13:28:11.502Z,35.90
2019-04-03T13:30:37.968Z,35.80
2019-04-03T13:33:06.628Z,35.90
2019-04-03T13:35:30.982Z,35.70
2019-04-03T13:37:57.487Z,35.80
2019-04-03T13:40:23.878Z,35.80
2019-04-03T13:42:50.123Z,35.90
2019-04-03T13:45:16.541Z,35.70
2019-04-03T13:47:46.279Z,35.70
2019-04-03T13:50:09.502Z,35.80
2019-04-03T13:52:41.377Z,35.80
2019-04-03T13:55:02.168Z,35.90
2019-04-03T13:57:28.504Z,35.80
2019-04-03T14:00:03.681Z,35.80
2019-04-03T14:02:26.764Z,35.70
2019-04-03T14:04:54.681Z,35.80
2019-04-03T14:07:19.898Z,35.80
2019-04-03T14:09:50.229Z,36.60
2019-04-03T14:12:12.411Z,35.80
2019-04-03T14:14:38.674Z,35.70
2019-04-03T14:17:06.156Z,35.80
2019-04-03T14:19:42.462Z,35.60
2019-04-03T14:21:59.933Z,35.70
2019-04-03T14:24:37.639Z,35.50
2019-04-03T14:26:51.436Z,35.70
2019-04-03T14:29:17.991Z,35.70
2019-04-03T14:31:44.359Z,35.80
2019-04-03T14:34:11.144Z,36.20
2019-04-03T14:36:37.386Z,35.70
2019-04-03T14:39:07.187Z,35.80
2019-04-03T14:41:30.259Z,35.70
2019-04-03T14:43:56.671Z,35.70
2019-04-03T14:46:24.898Z,35.70
2019-04-03T14:48:50.979Z,35.70
2019-04-03T14:51:17.191Z,35.70
2019-04-03T14:53:43.441Z,35.70
2019-04-03T14:56:09.882Z,35.50
2019-04-03T14:58:36.279Z,35.40
2019-04-03T15:01:02.524Z,35.50
2019-04-03T15:03:28.917Z,35.50
2019-04-03T15:05:55.615Z,35.50
2019-04-03T15:08:22.789Z,35.50
2019-04-03T15:10:50.091Z,35.30
2019-04-03T15:13:14.882Z,35.20
2019-04-03T15:15:41.331Z,35.40
2019-04-03T15:18:10.207Z,35.50
2019-04-03T15:20:34.023Z,35.40
2019-04-03T15:23:03.942Z,35.40
2019-04-03T15:25:27.132Z,35.50
2019-04-03T15:27:53.281Z,35.50
2019-04-03T15:30:19.755Z,35.50
2019-04-03T15:32:46.171Z,35.30
2019-04-03T15:35:12.524Z,35.20
2019-04-03T15:37:41.485Z,35.40
2019-04-03T15:40:05.712Z,35.30
2019-04-03T15:42:31.685Z,35.40
2019-04-03T15:44:58.969Z,35.50
2019-04-03T15:47:36.029Z,35.50
2019-04-03T15:49:52.138Z,35.40
2019-04-03T15:52:18.690Z,35.30
2019-04-03T15:54:45.168Z,35.50
2019-04-03T15:57:11.533Z,35.30
2019-04-03T15:59:37.988Z,35.30
2019-04-03T16:02:04.397Z,35.30
2019-04-03T16:04:33.440Z,35.20
2019-04-03T16:06:57.947Z,35.30
2019-04-03T16:09:24.464Z,35.30
2019-04-03T16:11:50.554Z,35.30
2019-04-03T16:14:19.858Z,35.30
2019-04-03T16:16:43.820Z,35.30
2019-04-03T16:19:11.398Z,35.40
2019-04-03T16:21:36.251Z,35.30
2019-04-03T16:24:02.758Z,35.30
2019-04-03T16:26:28.907Z,35.30
2019-04-03T16:28:56.885Z,35.30
2019-04-03T16:31:22.421Z,35.30
2019-04-03T16:33:48.214Z,35.30
2019-04-03T16:36:16.543Z,35.30
2019-04-03T16:38:40.884Z,35.30
2019-04-03T16:41:07.875Z,35.30
2019-04-03T16:43:33.555Z,35.30
2019-04-03T16:45:59.976Z,35.30
2019-04-03T16:48:26.597Z,35.30
2019-04-03T16:50:52.653Z,35.30
2019-04-03T16:53:20.512Z,35.20
2019-04-03T16:55:46.727Z,35.20
2019-04-03T16:58:12.445Z,35.30
2019-04-03T17:00:40.923Z,35.30
2019-04-03T17:03:04.804Z,35.30
2019-04-03T17:05:31.212Z,35.30
2019-04-03T17:07:57.715Z,35.20
2019-04-03T17:10:24.120Z,35.20
2019-04-03T17:12:50.185Z,35.20
2019-04-03T17:15:16.701Z,35.20
2019-04-03T17:17:45.413Z,35.20
2019-04-03T17:20:09.534Z,35.20
2019-04-03T17:22:38.909Z,35.20
2019-04-03T17:25:02.390Z,35.20
2019-04-03T17:27:30.167Z,35.20
2019-04-03T17:29:55.159Z,35.20
2019-04-03T17:32:21.390Z,35.20
2019-04-03T17:34:47.898Z,35.20
2019-04-03T17:37:14.257Z,35.10
2019-04-03T17:39:40.481Z,35.20
2019-04-03T17:42:08.525Z,35.10
2019-04-03T17:44:33.359Z,35.10
2019-04-03T17:46:59.597Z,35.10
2019-04-03T17:49:28.174Z,35.20
2019-04-03T17:51:52.454Z,35.20
2019-04-03T17:54:18.737Z,35.20
2019-04-03T17:56:45.345Z,35.20
2019-04-03T17:59:11.771Z,35.20
2019-04-03T18:01:38.188Z,35.20
2019-04-03T18:04:04.448Z,35.20
2019-04-03T18:06:30.836Z,35.20
2019-04-03T18:08:58.740Z,35.20
2019-04-03T18:11:25.163Z,35.20
2019-04-03T18:13:54.641Z,35.20
2019-04-03T18:16:18.006Z,35.20
2019-04-03T18:18:44.226Z,35.20
2019-04-03T18:21:12.970Z,35.20
2019-04-03T18:23:36.895Z,35.20
2019-04-03T18:26:03.147Z,35.80
2019-04-03T18:28:29.562Z,35.20
2019-04-03T18:30:57.439Z,35.20
2019-04-03T18:33:23.895Z,35.20
2019-04-03T18:35:50.273Z,35.20
2019-04-03T18:38:16.539Z,35.20
2019-04-03T18:40:45.638Z,35.20
2019-04-03T18:43:10.242Z,35.30
2019-04-03T18:45:36.676Z,35.10
2019-04-03T18:48:03.071Z,35.20
2019-04-03T18:50:29.408Z,35.20
2019-04-03T18:52:55.556Z,35.10
2019-04-03T18:55:21.981Z,35.10
2019-04-03T18:57:50.194Z,35.20
2019-04-03T19:00:15.484Z,35.20
2019-04-03T19:02:41.862Z,35.20
2019-04-03T19:05:10.111Z,35.20
2019-04-03T19:07:34.836Z,35.20
2019-04-03T19:10:07.127Z,35.20
2019-04-03T19:12:35.485Z,35.20
2019-04-03T19:14:54.688Z,35.20
2019-04-03T19:17:21.127Z,35.20
2019-04-03T19:19:47.547Z,35.20
2019-04-03T19:22:13.988Z,35.30
2019-04-03T19:24:40.428Z,35.30
2019-04-03T19:27:06.664Z,35.30
2019-04-03T19:29:35.482Z,35.30
2019-04-03T19:32:00.184Z,35.30
2019-04-03T19:34:26.546Z,35.20
2019-04-03T19:36:52.983Z,35.30
2019-04-03T19:39:19.227Z,35.20
2019-04-03T19:41:46.075Z,35.20
2019-04-03T19:44:12.466Z,35.20
2019-04-03T19:46:38.739Z,35.20
2019-04-03T19:49:05.712Z,35.30
2019-04-03T19:51:32.024Z,35.20
2019-04-03T19:53:59.779Z,35.20
2019-04-03T19:56:26.053Z,35.30
2019-04-03T19:58:51.326Z,35.20
2019-04-03T20:01:17.710Z,35.20
2019-04-03T20:03:44.298Z,35.20
2019-04-03T20:06:10.368Z,35.20
2019-04-03T20:08:36.615Z,35.20
2019-04-03T20:11:03.036Z,35.30
2019-04-03T20:13:29.273Z,35.30
2019-04-03T20:15:55.554Z,35.30
2019-04-03T20:18:21.910Z,35.20
2019-04-03T20:20:50.052Z,35.30
2019-04-03T20:23:16.420Z,35.30
2019-04-03T20:25:44.077Z,35.30
2019-04-03T20:28:09.290Z,35.30
2019-04-03T20:30:35.518Z,35.30
2019-04-03T20:33:01.704Z,35.30
2019-04-03T20:35:28.014Z,35.30
2019-04-03T20:37:56.667Z,35.30
2019-04-03T20:40:20.859Z,35.30
2019-04-03T20:42:47.134Z,35.30
2019-04-03T20:45:13.511Z,35.30
2019-04-03T20:47:39.957Z,35.30
2019-04-03T20:50:06.946Z,35.30
2019-04-03T20:52:32.681Z,35.30
2019-04-03T20:54:59.072Z,35.30
2019-04-03T20:57:25.714Z,35.30
2019-04-03T21:00:01.813Z,35.30
2019-04-03T21:02:18.882Z,35.30
2019-04-03T21:04:46.780Z,35.40
2019-04-03T21:07:11.634Z,35.40
2019-04-03T21:09:38.040Z,35.40
2019-04-03T21:12:05.003Z,35.40
2019-04-03T21:14:30.706Z,35.40
2019-04-03T21:16:56.969Z,35.40
2019-04-03T21:19:23.387Z,35.40
2019-04-03T21:21:49.614Z,35.40
2019-04-03T21:24:15.823Z,35.40
2019-04-03T21:26:42.043Z,35.40
2019-04-03T21:29:08.331Z,35.40
2019-04-03T21:31:34.742Z,35.40
2019-04-03T21:34:01.891Z,35.40
2019-04-03T21:36:27.375Z,35.40
2019-04-03T21:38:53.601Z,35.50
2019-04-03T21:41:20.790Z,35.40
2019-04-03T21:43:46.281Z,35.90
2019-04-03T21:46:14.176Z,35.50
2019-04-03T21:48:40.566Z,35.50
2019-04-03T21:51:07.069Z,35.50
2019-04-03T21:53:33.432Z,35.50
2019-04-03T21:56:01.837Z,35.50
2019-04-03T21:58:26.132Z,35.50
2019-04-03T22:00:52.550Z,35.50
2019-04-03T22:03:19.739Z,35.50
2019-04-03T22:05:45.401Z,35.50
2019-04-03T22:08:11.675Z,35.50
2019-04-03T22:10:38.092Z,35.50
2019-04-03T22:13:05.871Z,35.50
2019-04-03T22:15:30.926Z,36.10
2019-04-03T22:17:57.154Z,35.50
2019-04-03T22:20:25.019Z,35.50
2019-04-03T22:22:52.887Z,35.50
2019-04-03T22:25:20.753Z,35.50
2019-04-03T22:27:48.623Z,35.50
2019-04-03T22:30:16.475Z,35.50
2019-04-03T22:32:42.732Z,35.40
2019-04-03T22:35:08.951Z,35.50
2019-04-03T22:37:36.871Z,35.50
2019-04-03T22:40:03.288Z,35.50
2019-04-03T22:42:29.671Z,35.50
2019-04-03T22:44:55.987Z,35.50
2019-04-03T22:47:23.045Z,35.50
2019-04-03T22:49:48.818Z,35.50
2019-04-03T22:52:15.233Z,35.50
2019-04-03T22:54:43.698Z,35.50
2019-04-03T22:57:07.891Z,35.50
2019-04-03T22:59:34.126Z,35.50
2019-04-03T23:02:01.452Z,35.50
2019-04-03T23:04:26.970Z,35.50
2019-04-03T23:06:53.386Z,35.50
2019-04-03T23:09:19.682Z,35.50
2019-04-03T23:11:46.072Z,35.50
2019-04-03T23:14:13.141Z,35.50
2019-04-03T23:16:42.409Z,35.50
2019-04-03T23:19:06.807Z,35.50
2019-04-03T23:21:33.929Z,35.50
2019-04-03T23:24:00.270Z,35.50
2019-04-03T23:26:26.535Z,35.50
2019-04-03T23:28:52.978Z,35.50
2019-04-03T23:31:19.229Z,35.50
2019-04-03T23:33:47.556Z,35.50
2019-04-03T23:36:12.047Z,35.50
2019-04-03T23:38:38.466Z,35.50
2019-04-03T23:41:06.106Z,35.50
2019-04-03T23:43:31.364Z,35.50
2019-04-03T23:45:57.590Z,35.50
2019-04-03T23:48:24.035Z,35.50
2019-04-03T23:50:52.442Z,35.50
2019-04-03T23:53:16.871Z,35.50
2019-04-03T23:55:43.311Z,35.50
2019-04-03T23:58:10.854Z,35.50
